Refuge, Texas
Current Conditions -  °F | °C
As of 1:55 PM on Saturday 25 Oct 2014 (Local Time) from KDKR Reporting Station
Clear Clear  
Wind Chill: 84°   Ceiling: Unl
Heat Index: 86°   Visibility: 10mi
Dew Point: 64°   Wind: 5mph
Humidity: 51%   Direction: 280°W
Pressure: 30.16"   Gusts: NA
Location:  31.4982°N, 95.4177°W
Report Text: KDKR 251855Z AUTO 28004KT 10SM CLR 29/18 A3016 RMK AO2
Loading
Personal Weather Stations






























Interactive Weather Map
Tropical Storm Tracking
New forecast layout! Learn more

10-Day Weather Forecast

Advertisements
Track Severe Weather on mobile